Time;durP1;ratioP1;P1;durP2;ratioP2;P2;SDS_P1;SDS_P2;PMS_P1;PMS_P2;Temp;Humidity;BMP_temperature;BMP_pressure;BME280_temperature;BME280_humidity;BME280_pressure;Samples;Min_cycle;Max_cycle;Signal;HPM_P1;HPM_P2
2022/12/06 00:01:37;;;;;;;1.65;0.93;;;5.40;99.90;;;;;;5054407;28;20396;-71
2022/12/06 00:04:06;;;;;;;2.63;1.20;;;5.40;99.90;;;;;;5059107;28;20045;-71
2022/12/06 00:06:36;;;;;;;4.10;1.50;;;5.30;99.90;;;;;;5057031;28;20036;-71
2022/12/06 00:09:03;;;;;;;3.40;1.70;;;5.30;99.90;;;;;;5044487;28;20507;-71
2022/12/06 00:11:32;;;;;;;2.42;1.52;;;5.30;99.90;;;;;;5060537;28;20048;-71
2022/12/06 00:14:07;;;;;;;3.30;1.40;;;5.30;99.90;;;;;;5053651;28;20124;-71
2022/12/06 00:16:33;;;;;;;2.75;1.50;;;5.20;99.90;;;;;;5056976;28;20105;-71
2022/12/06 00:19:00;;;;;;;3.25;1.48;;;5.20;99.90;;;;;;5071520;28;20136;-71
2022/12/06 00:21:27;;;;;;;;;;;5.30;99.90;;;;;;5046833;28;20044;-71
2022/12/06 00:24:01;;;;;;;2.23;1.67;;;5.30;99.90;;;;;;5051636;28;19939;-71
2022/12/06 00:26:28;;;;;;;3.15;1.50;;;5.30;99.90;;;;;;5067916;28;20315;-71
2022/12/06 00:28:56;;;;;;;2.97;1.50;;;5.30;99.90;;;;;;5067863;28;20480;-71
2022/12/06 00:31:25;;;;;;;2.67;1.48;;;5.20;99.90;;;;;;5034480;28;20080;-71
2022/12/06 00:33:51;;;;;;;2.22;1.23;;;5.30;99.90;;;;;;5051292;28;20134;-70
2022/12/06 00:36:20;;;;;;;1.80;1.10;;;5.20;99.90;;;;;;5034443;28;20052;-71
2022/12/06 00:38:46;;;;;;;2.38;1.65;;;5.20;99.90;;;;;;5051484;28;20488;-70
2022/12/06 00:41:13;;;;;;;;;;;5.30;99.90;;;;;;5051229;28;20442;-71
2022/12/06 00:43:39;;;;;;;1.58;1.20;;;5.20;99.90;;;;;;5051208;28;20048;-71
2022/12/06 00:46:07;;;;;;;2.97;1.10;;;5.20;99.90;;;;;;5050502;28;20527;-71
2022/12/06 00:48:33;;;;;;;1.58;1.08;;;5.30;99.90;;;;;;5034684;28;20037;-72
2022/12/06 00:50:59;;;;;;;1.75;1.20;;;5.30;99.90;;;;;;5050837;28;20404;-72
2022/12/06 00:53:25;;;;;;;2.45;1.17;;;5.20;99.90;;;;;;5050882;28;20235;-72
2022/12/06 00:55:51;;;;;;;1.30;1.00;;;5.30;99.90;;;;;;5051090;28;20491;-72
2022/12/06 00:58:17;;;;;;;1.15;0.90;;;5.30;99.90;;;;;;5067498;28;20178;-72
2022/12/06 01:00:43;;;;;;;1.63;1.00;;;5.30;99.90;;;;;;5067677;28;20127;-72
2022/12/06 01:03:09;;;;;;;1.80;1.15;;;5.30;99.90;;;;;;5067520;28;20053;-72
2022/12/06 01:06:05;;;;;;;3.42;1.20;;;5.20;99.90;;;;;;5067381;28;20063;-72
2022/12/06 01:08:32;;;;;;;3.08;1.08;;;5.30;99.90;;;;;;5050284;28;20052;-72
2022/12/06 01:10:58;;;;;;;1.65;0.70;;;5.30;99.90;;;;;;5050454;28;20041;-72
2022/12/06 01:13:24;;;;;;;1.45;0.88;;;5.20;99.90;;;;;;5051542;28;20121;-72
2022/12/06 01:15:49;;;;;;;1.27;0.60;;;5.20;99.90;;;;;;5050167;28;20543;-72
2022/12/06 01:18:15;;;;;;;1.77;0.80;;;5.10;99.90;;;;;;5066864;28;20045;-72
2022/12/06 01:20:41;;;;;;;2.13;1.25;;;5.10;99.90;;;;;;5066990;28;20087;-72
2022/12/06 01:23:07;;;;;;;4.28;1.13;;;5.10;99.90;;;;;;5066894;28;20059;-72
2022/12/06 01:25:32;;;;;;;1.77;0.80;;;5.20;99.90;;;;;;5067019;28;20187;-71
2022/12/06 01:27:59;;;;;;;2.17;1.15;;;5.20;99.90;;;;;;5066832;28;20053;-71
2022/12/06 01:30:24;;;;;;;;;;;5.20;99.90;;;;;;5068684;28;20504;-72
2022/12/06 01:32:50;;;;;;;1.10;0.70;;;5.10;99.90;;;;;;5069958;28;19924;-72
2022/12/06 01:35:16;;;;;;;0.75;0.50;;;5.10;99.90;;;;;;5053489;28;20389;-72
2022/12/06 01:37:41;;;;;;;0.60;0.60;;;5.00;99.90;;;;;;5069887;28;20044;-72
2022/12/06 01:40:08;;;;;;;1.60;0.40;;;5.00;99.90;;;;;;5069957;28;20041;-72
2022/12/06 01:42:33;;;;;;;;;;;5.00;99.90;;;;;;5070322;28;20044;-72
2022/12/06 01:45:00;;;;;;;0.73;0.43;;;5.00;99.90;;;;;;5070047;28;19920;-72
2022/12/06 01:47:40;;;;;;;0.95;0.50;;;4.90;99.90;;;;;;5069479;28;20055;-72
2022/12/06 01:50:10;;;;;;;0.65;0.50;;;5.00;99.90;;;;;;5070188;28;20044;-72
2022/12/06 01:52:45;;;;;;;1.55;0.40;;;5.00;99.90;;;;;;5054692;28;20102;-72
2022/12/06 01:55:12;;;;;;;0.63;0.38;;;5.00;99.90;;;;;;5070370;28;20067;-71
2022/12/06 01:57:38;;;;;;;0.45;0.30;;;5.00;99.90;;;;;;5069948;28;20091;-72
2022/12/06 02:00:04;;;;;;;1.00;0.52;;;5.00;99.90;;;;;;5070057;28;20123;-71
2022/12/06 02:02:30;;;;;;;;;;;5.00;99.90;;;;;;5034912;28;20045;-71
2022/12/06 02:04:57;;;;;;;0.80;0.50;;;5.00;99.90;;;;;;5033337;28;19927;-72
2022/12/06 02:07:26;;;;;;;1.17;0.50;;;5.00;99.90;;;;;;5054849;28;20483;-71
2022/12/06 02:09:52;;;;;;;0.80;0.47;;;4.90;99.90;;;;;;5062406;28;20131;-71
2022/12/06 02:12:18;;;;;;;;;;;4.90;99.90;;;;;;5051478;28;20060;-71
2022/12/06 02:14:47;;;;;;;1.88;0.80;;;4.90;99.90;;;;;;5049754;28;19989;-71
2022/12/06 02:18:01;;;;;;;1.10;0.70;;;4.90;99.90;;;;;;5065391;28;20049;-72
2022/12/06 02:20:44;;;;;;;1.30;0.75;;;4.80;99.90;;;;;;4991153;28;20120;-72
2022/12/06 02:24:07;;;;;;;1.02;0.60;;;4.80;99.90;;;;;;5044002;28;20040;-72
2022/12/06 02:26:42;;;;;;;1.58;0.70;;;4.80;99.90;;;;;;4992979;28;20076;-72
2022/12/06 02:29:28;;;;;;;0.82;0.70;;;4.90;99.90;;;;;;4993009;28;20052;-72
2022/12/06 02:32:03;;;;;;;1.98;0.70;;;4.80;99.90;;;;;;5036835;28;20544;-72
2022/12/06 02:34:55;;;;;;;0.50;0.50;;;4.80;99.90;;;;;;5042102;28;20150;-72
2022/12/06 02:37:28;;;;;;;1.00;0.50;;;4.80;99.90;;;;;;5041090;28;20103;-72
2022/12/06 02:39:57;;;;;;;0.73;0.50;;;4.80;99.90;;;;;;5068815;28;20071;-72
2022/12/06 02:42:28;;;;;;;0.73;0.43;;;4.70;99.90;;;;;;5049843;28;20041;-72
2022/12/06 02:44:58;;;;;;;0.75;0.47;;;4.70;99.90;;;;;;5034116;28;20044;-72
2022/12/06 02:47:31;;;;;;;1.48;0.60;;;4.70;99.90;;;;;;5048947;28;20052;-72
2022/12/06 02:50:00;;;;;;;1.27;0.50;;;4.70;99.90;;;;;;5064523;28;20041;-72
2022/12/06 02:52:27;;;;;;;1.60;0.60;;;4.60;99.90;;;;;;5032374;28;20410;-72
2022/12/06 02:54:58;;;;;;;0.55;0.50;;;4.60;99.90;;;;;;5051583;28;20051;-72
2022/12/06 02:57:37;;;;;;;0.77;0.60;;;4.70;99.90;;;;;;5034627;28;20059;-72
2022/12/06 03:00:27;;;;;;;1.40;0.50;;;4.60;99.90;;;;;;5033638;28;20124;-72
2022/12/06 03:03:22;;;;;;;1.15;0.50;;;4.60;99.90;;;;;;5032827;28;20112;-72
2022/12/06 03:05:51;;;;;;;1.08;0.50;;;4.60;99.90;;;;;;5049911;28;20048;-72
2022/12/06 03:08:29;;;;;;;1.05;0.60;;;4.60;99.90;;;;;;5055960;28;20045;-70
2022/12/06 03:10:59;;;;;;;0.73;0.60;;;4.60;99.90;;;;;;5053250;28;20044;-71
2022/12/06 03:13:53;;;;;;;1.13;0.70;;;4.60;99.90;;;;;;5061368;28;20040;-71
2022/12/06 03:16:26;;;;;;;3.90;0.90;;;4.60;99.90;;;;;;5044563;28;20084;-70
2022/12/06 03:19:06;;;;;;;0.73;0.50;;;4.60;99.90;;;;;;5069529;28;20044;-71
2022/12/06 03:21:47;;;;;;;1.38;0.70;;;4.50;99.90;;;;;;5058496;28;20044;-71
2022/12/06 03:24:15;;;;;;;1.35;0.52;;;4.60;99.90;;;;;;5070896;28;20075;-72
2022/12/06 03:26:44;;;;;;;0.85;0.57;;;4.60;99.90;;;;;;5066679;28;20036;-72
2022/12/06 03:29:13;;;;;;;0.63;0.50;;;4.60;99.90;;;;;;5071799;28;20071;-73
2022/12/06 03:31:40;;;;;;;0.70;0.50;;;4.60;99.90;;;;;;5042034;28;20132;-72
2022/12/06 03:34:13;;;;;;;0.75;0.50;;;4.60;99.90;;;;;;5057546;28;20332;-72
2022/12/06 03:36:40;;;;;;;0.77;0.45;;;4.60;99.90;;;;;;5070524;28;20095;-72
2022/12/06 03:39:07;;;;;;;0.40;0.40;;;4.50;99.90;;;;;;5065068;28;20048;-72
2022/12/06 03:41:42;;;;;;;0.43;0.40;;;4.50;99.90;;;;;;5055424;28;20032;-72
2022/12/06 03:44:08;;;;;;;0.47;0.30;;;4.40;99.90;;;;;;5052125;28;20493;-72
2022/12/06 03:46:37;;;;;;;0.65;0.35;;;4.30;99.90;;;;;;5035639;28;20041;-72
2022/12/06 03:49:26;;;;;;;0.45;0.43;;;4.40;99.90;;;;;;5054714;28;20120;-71
2022/12/06 03:51:52;;;;;;;1.23;0.40;;;4.30;99.90;;;;;;5055600;28;20092;-71
2022/12/06 03:54:18;;;;;;;0.25;0.22;;;4.20;99.90;;;;;;5053039;28;20056;-72
2022/12/06 03:56:44;;;;;;;0.43;0.30;;;4.20;99.90;;;;;;5055744;28;20044;-72
2022/12/06 03:59:10;;;;;;;1.00;0.30;;;4.20;99.90;;;;;;5070776;28;20041;-72
2022/12/06 04:01:36;;;;;;;0.20;0.20;;;4.20;99.90;;;;;;5072339;28;20048;-72
2022/12/06 04:04:02;;;;;;;;;;;4.20;99.90;;;;;;5040967;28;20044;-72
2022/12/06 04:06:28;;;;;;;0.30;0.20;;;4.30;99.90;;;;;;5034847;28;19932;-72
2022/12/06 04:09:51;;;;;;;0.20;0.20;;;4.30;99.90;;;;;;5035378;28;20067;-72
2022/12/06 04:11:40;;;;;;;0.28;0.20;;;4.30;99.90;;;;;;5038893;28;20131;-72
2022/12/06 04:14:06;;;;;;;0.30;0.15;;;4.30;99.90;;;;;;5056106;28;20040;-72
2022/12/06 04:19:15;;;;;;;0.22;0.22;;;4.10;99.90;;;;;;5051492;28;20162;-72
2022/12/06 04:24:25;;;;;;;0.50;0.30;;;4.10;99.90;;;;;;5041543;28;20546;-72
2022/12/06 04:28:40;;;;;;;0.40;0.20;;;4.00;99.90;;;;;;5036905;28;20048;-72
2022/12/06 04:40:34;;;;;;;0.15;0.15;;;3.70;99.90;;;;;;5066347;28;20510;-72
2022/12/06 04:45:44;;;;;;;0.30;0.20;;;3.60;99.90;;;;;;5054476;28;20086;-72
2022/12/06 04:48:10;;;;;;;0.30;0.30;;;3.50;99.90;;;;;;5069839;28;20080;-72
2022/12/06 04:50:35;;;;;;;0.32;0.30;;;3.40;99.90;;;;;;5035903;28;20349;-72
2022/12/06 04:53:01;;;;;;;0.00;0.00;;;3.30;99.90;;;;;;5054615;28;20483;-72
2022/12/06 04:55:27;;;;;;;0.68;0.28;;;3.30;99.90;;;;;;5052156;28;20052;-72
2022/12/06 04:57:53;;;;;;;1.20;0.40;;;3.30;99.90;;;;;;5052384;28;20124;-71
2022/12/06 05:00:19;;;;;;;;;;;3.20;99.90;;;;;;5034521;28;20035;-71
2022/12/06 05:02:45;;;;;;;0.60;0.38;;;3.20;99.90;;;;;;5050852;28;19924;-71
2022/12/06 05:05:11;;;;;;;0.40;0.40;;;3.10;99.90;;;;;;5034137;28;20115;-72
2022/12/06 05:07:36;;;;;;;0.40;0.30;;;3.00;99.90;;;;;;5050883;28;20067;-72
2022/12/06 05:10:03;;;;;;;0.43;0.30;;;2.90;99.90;;;;;;5066269;28;20126;-72
2022/12/06 05:12:28;;;;;;;0.30;0.30;;;2.80;99.90;;;;;;5017303;28;20502;-72
2022/12/06 05:14:54;;;;;;;0.40;0.30;;;2.80;99.90;;;;;;5051391;28;20135;-72
2022/12/06 05:17:19;;;;;;;0.83;0.30;;;2.80;99.90;;;;;;5037046;28;20364;-72
2022/12/06 05:19:45;;;;;;;0.50;0.40;;;2.80;99.90;;;;;;5068123;28;20389;-72
2022/12/06 05:22:11;;;;;;;0.47;0.32;;;2.90;99.90;;;;;;5052245;28;20045;-72
2022/12/06 05:24:36;;;;;;;0.45;0.45;;;3.00;99.90;;;;;;5033345;28;20052;-72
2022/12/06 05:27:02;;;;;;;1.15;0.60;;;3.10;99.90;;;;;;5021106;28;20032;-72
2022/12/06 05:29:28;;;;;;;0.93;0.65;;;3.10;99.90;;;;;;5039984;28;20437;-72
2022/12/06 05:31:53;;;;;;;0.98;0.77;;;3.00;99.90;;;;;;5047056;28;20044;-72
2022/12/06 05:34:19;;;;;;;1.20;0.73;;;3.30;99.90;;;;;;5065390;28;20047;-71
2022/12/06 05:36:45;;;;;;;1.77;0.80;;;3.40;99.90;;;;;;5053596;28;20096;-71
2022/12/06 05:39:10;;;;;;;1.10;0.70;;;3.50;99.90;;;;;;5068915;28;20051;-72
2022/12/06 05:41:36;;;;;;;0.90;0.50;;;3.30;99.90;;;;;;5048251;28;20399;-71
2022/12/06 05:44:02;;;;;;;0.75;0.40;;;3.40;99.90;;;;;;5045370;28;20040;-71
2022/12/06 05:46:27;;;;;;;0.47;0.38;;;3.20;99.90;;;;;;5068072;28;20046;-71
2022/12/06 05:48:53;;;;;;;0.60;0.30;;;3.30;99.90;;;;;;5069829;28;20564;-72
2022/12/06 05:51:18;;;;;;;1.40;0.40;;;3.00;99.90;;;;;;5059626;28;20044;-71
2022/12/06 05:53:44;;;;;;;0.88;0.40;;;3.00;99.90;;;;;;5062227;28;20384;-73
2022/12/06 05:56:11;;;;;;;0.47;0.40;;;3.00;99.90;;;;;;5068798;28;20365;-73
2022/12/06 05:58:38;;;;;;;0.30;0.30;;;2.70;99.90;;;;;;5069624;28;20561;-74
2022/12/06 06:01:05;;;;;;;0.47;0.30;;;2.60;99.90;;;;;;5046432;28;20037;-73
2022/12/06 06:03:31;;;;;;;0.38;0.30;;;2.70;99.90;;;;;;5035035;28;20068;-74
2022/12/06 06:05:58;;;;;;;0.30;0.30;;;2.60;99.90;;;;;;5034203;28;20045;-73
2022/12/06 06:08:25;;;;;;;0.20;0.20;;;2.60;99.90;;;;;;5046841;28;20052;-74
2022/12/06 06:10:50;;;;;;;0.47;0.35;;;2.40;99.90;;;;;;5066869;28;20051;-74
2022/12/06 06:13:16;;;;;;;0.80;0.30;;;2.60;99.90;;;;;;5069962;28;20045;-74
2022/12/06 06:15:42;;;;;;;0.20;0.20;;;2.50;99.90;;;;;;5067538;28;20036;-74
2022/12/06 06:18:08;;;;;;;0.10;0.10;;;2.60;99.90;;;;;;5068607;28;20036;-74
2022/12/06 06:20:33;;;;;;;0.30;0.30;;;2.70;99.90;;;;;;5051318;28;20048;-73
2022/12/06 06:22:59;;;;;;;0.73;0.30;;;2.60;99.90;;;;;;5049557;28;20130;-74
2022/12/06 06:25:25;;;;;;;0.10;0.10;;;2.80;99.90;;;;;;5050059;28;20037;-73
2022/12/06 06:27:53;;;;;;;0.30;0.20;;;2.80;99.90;;;;;;5066441;28;20044;-74
2022/12/06 06:30:19;;;;;;;0.55;0.30;;;3.00;99.90;;;;;;5067086;28;20123;-74
2022/12/06 06:32:45;;;;;;;0.60;0.20;;;2.90;99.90;;;;;;5048851;28;20120;-74
2022/12/06 06:35:11;;;;;;;0.65;0.32;;;2.60;99.90;;;;;;5055756;28;20063;-73
2022/12/06 06:37:36;;;;;;;0.55;0.20;;;2.70;99.90;;;;;;5049988;28;20607;-74
2022/12/06 06:40:03;;;;;;;0.40;0.30;;;2.50;99.90;;;;;;5051051;28;20044;-71
2022/12/06 06:42:28;;;;;;;0.52;0.30;;;2.50;99.90;;;;;;5050308;28;20049;-72
2022/12/06 06:44:54;;;;;;;0.20;0.20;;;2.30;99.90;;;;;;5064751;28;20041;-72
2022/12/06 06:47:21;;;;;;;0.20;0.20;;;2.20;99.90;;;;;;5075212;28;20047;-71
2022/12/06 06:49:46;;;;;;;;;;;2.20;99.90;;;;;;5076349;28;20048;-72
2022/12/06 06:52:12;;;;;;;0.50;0.40;;;2.00;99.90;;;;;;5074882;28;20294;-72
2022/12/06 06:54:37;;;;;;;0.40;0.40;;;2.00;99.90;;;;;;5075738;28;20126;-72
2022/12/06 06:57:03;;;;;;;0.40;0.30;;;2.10;99.90;;;;;;5043926;28;20107;-71
2022/12/06 06:59:29;;;;;;;0.40;0.35;;;1.80;99.90;;;;;;5055369;28;20049;-72
2022/12/06 07:01:55;;;;;;;0.50;0.40;;;1.70;99.90;;;;;;5069907;28;20155;-72
2022/12/06 07:04:21;;;;;;;0.60;0.40;;;1.60;99.90;;;;;;5052550;28;20083;-72
2022/12/06 07:06:47;;;;;;;0.50;0.50;;;1.70;99.90;;;;;;5062067;28;20415;-71
2022/12/06 07:09:12;;;;;;;0.50;0.50;;;1.50;99.90;;;;;;5057589;28;20127;-71
2022/12/06 07:11:38;;;;;;;0.50;0.43;;;1.60;99.90;;;;;;5072269;28;20086;-72
2022/12/06 07:14:04;;;;;;;0.43;0.32;;;1.60;99.90;;;;;;5055060;28;20488;-71
2022/12/06 07:16:30;;;;;;;0.98;0.50;;;1.50;99.90;;;;;;5045457;28;20048;-72
2022/12/06 07:18:55;;;;;;;0.65;0.40;;;1.50;99.90;;;;;;5063903;28;20045;-71
2022/12/06 07:21:22;;;;;;;1.00;0.40;;;1.30;99.90;;;;;;5057144;28;20489;-71
2022/12/06 07:23:48;;;;;;;1.15;0.57;;;1.40;99.90;;;;;;5061719;28;20472;-73
2022/12/06 07:26:20;;;;;;;0.70;0.47;;;1.40;99.90;;;;;;5068175;28;20040;-74
2022/12/06 07:28:47;;;;;;;0.52;0.50;;;1.30;99.90;;;;;;5063536;28;20511;-72
2022/12/06 07:31:24;;;;;;;0.60;0.38;;;1.40;99.90;;;;;;5063227;28;20090;-73
2022/12/06 07:33:55;;;;;;;0.63;0.45;;;1.30;99.90;;;;;;5067039;28;20442;-73
2022/12/06 07:36:22;;;;;;;0.73;0.60;;;1.40;99.90;;;;;;5064052;28;20488;-73
2022/12/06 07:38:50;;;;;;;1.08;0.60;;;1.20;99.90;;;;;;5045558;28;20047;-72
2022/12/06 07:46:48;;;;;;;0.80;0.60;;;1.20;99.90;;;;;;5065391;28;20581;-72
2022/12/06 07:49:17;;;;;;;0.90;0.60;;;0.90;99.90;;;;;;5062402;28;20049;-72
2022/12/06 07:51:44;;;;;;;0.70;0.68;;;1.00;99.90;;;;;;5057599;28;20483;-72
2022/12/06 07:54:10;;;;;;;0.88;0.70;;;1.00;99.90;;;;;;5073257;28;20036;-72
2022/12/06 07:56:36;;;;;;;1.05;0.70;;;1.10;99.90;;;;;;5054052;28;20575;-72
2022/12/06 07:59:02;;;;;;;1.17;0.80;;;1.00;99.90;;;;;;5057594;28;20049;-72
2022/12/06 08:01:28;;;;;;;1.48;0.60;;;1.40;99.90;;;;;;5052256;28;20499;-72
2022/12/06 08:03:55;;;;;;;0.70;0.60;;;1.30;99.90;;;;;;5054694;28;20033;-73
2022/12/06 08:06:21;;;;;;;1.13;0.63;;;1.60;99.90;;;;;;5071768;28;20554;-71
2022/12/06 08:08:47;;;;;;;;;;;1.60;99.90;;;;;;5054232;28;20044;-71
2022/12/06 08:11:12;;;;;;;0.55;0.47;;;1.40;99.90;;;;;;5052804;28;19974;-71
2022/12/06 08:13:38;;;;;;;0.80;0.50;;;1.70;99.90;;;;;;5056993;28;20048;-71
2022/12/06 08:16:11;;;;;;;0.80;0.50;;;1.70;99.90;;;;;;5045981;28;20044;-71
2022/12/06 08:18:38;;;;;;;0.80;0.50;;;1.90;99.90;;;;;;5055895;28;20416;-72
2022/12/06 08:21:04;;;;;;;0.40;0.40;;;2.10;99.90;;;;;;5045312;28;20182;-72
2022/12/06 08:23:30;;;;;;;0.93;0.65;;;2.50;99.90;;;;;;5034999;28;20068;-73
2022/12/06 08:26:17;;;;;;;0.88;0.57;;;2.60;99.90;;;;;;5051956;28;20079;-72
2022/12/06 08:28:44;;;;;;;0.63;0.52;;;2.60;99.90;;;;;;5036279;28;20392;-72
2022/12/06 08:31:19;;;;;;;0.60;0.57;;;2.50;99.90;;;;;;5051255;28;20445;-72
2022/12/06 08:33:45;;;;;;;0.70;0.40;;;2.50;99.90;;;;;;5042463;28;20058;-71
2022/12/06 08:36:14;;;;;;;0.70;0.47;;;2.70;99.90;;;;;;5071032;28;20040;-72
2022/12/06 08:38:40;;;;;;;0.85;0.50;;;2.80;99.90;;;;;;5044906;28;20496;-71
2022/12/06 08:41:54;;;;;;;0.50;0.43;;;2.90;99.90;;;;;;5050922;28;20087;-71
2022/12/06 08:43:57;;;;;;;0.38;0.38;;;2.50;99.90;;;;;;5054275;28;20564;-71
2022/12/06 08:46:23;;;;;;;0.30;0.22;;;2.80;99.90;;;;;;5053948;28;20040;-71
2022/12/06 08:48:50;;;;;;;0.47;0.40;;;2.60;99.90;;;;;;5059163;28;20069;-72
2022/12/06 08:51:16;;;;;;;0.30;0.30;;;2.60;99.90;;;;;;5055203;28;20040;-72
2022/12/06 08:53:42;;;;;;;1.23;0.55;;;3.00;99.90;;;;;;5040490;28;20122;-72
2022/12/06 08:56:08;;;;;;;0.47;0.40;;;2.70;99.90;;;;;;5032063;28;20086;-72
2022/12/06 08:58:33;;;;;;;0.80;0.50;;;2.80;99.90;;;;;;5054770;28;20041;-70
2022/12/06 09:00:59;;;;;;;1.30;0.60;;;2.80;99.90;;;;;;5067082;28;20047;-72
2022/12/06 09:03:25;;;;;;;0.82;0.50;;;3.00;99.90;;;;;;5070116;28;20396;-72
2022/12/06 09:05:50;;;;;;;1.02;0.43;;;3.00;99.90;;;;;;5053974;28;20050;-72
2022/12/06 09:08:16;;;;;;;0.65;0.60;;;3.40;99.90;;;;;;5069878;28;20052;-72
2022/12/06 09:10:43;;;;;;;1.27;0.90;;;3.20;99.90;;;;;;5053911;28;20453;-72
2022/12/06 09:13:09;;;;;;;3.00;1.10;;;3.20;99.90;;;;;;5072138;28;20044;-72
2022/12/06 09:15:36;;;;;;;1.50;1.00;;;3.20;99.90;;;;;;5053881;28;20040;-72
2022/12/06 09:18:01;;;;;;;2.00;0.75;;;3.20;99.90;;;;;;5070090;28;20515;-71
2022/12/06 09:20:27;;;;;;;1.50;0.90;;;3.30;99.90;;;;;;5053861;28;20115;-72
2022/12/06 09:22:53;;;;;;;1.15;0.90;;;3.50;99.90;;;;;;5070111;28;20769;-71
2022/12/06 09:25:18;;;;;;;1.08;0.85;;;3.30;99.90;;;;;;5036830;28;20080;-72
2022/12/06 09:27:44;;;;;;;1.40;0.90;;;3.10;99.90;;;;;;5070014;28;20040;-72
2022/12/06 09:30:10;;;;;;;1.02;0.88;;;3.40;99.90;;;;;;5069888;28;20194;-71
2022/12/06 09:32:36;;;;;;;1.73;1.13;;;3.50;99.90;;;;;;5071338;28;20059;-71
2022/12/06 09:35:01;;;;;;;1.02;0.82;;;3.20;99.90;;;;;;5053444;28;20045;-71
2022/12/06 09:37:27;;;;;;;0.75;0.70;;;3.40;99.90;;;;;;5071412;28;20052;-70
2022/12/06 09:39:59;;;;;;;1.95;1.20;;;3.30;99.90;;;;;;5069711;28;20178;-71
2022/12/06 09:43:04;;;;;;;2.25;1.13;;;3.50;99.90;;;;;;5053187;28;20059;-71
2022/12/06 09:46:01;;;;;;;1.35;1.05;;;3.40;99.90;;;;;;5040586;28;20480;-71
2022/12/06 09:48:45;;;;;;;1.27;1.00;;;3.50;99.90;;;;;;5053147;28;20040;-71
2022/12/06 09:51:28;;;;;;;2.40;0.93;;;3.70;99.90;;;;;;5069726;28;20372;-71
2022/12/06 09:54:16;;;;;;;2.97;1.10;;;3.80;99.90;;;;;;5069551;28;20102;-71
2022/12/06 09:56:50;;;;;;;2.40;1.17;;;3.80;99.90;;;;;;5052919;28;20051;-70
2022/12/06 09:59:38;;;;;;;1.95;0.98;;;4.10;99.90;;;;;;5069339;28;20059;-71
2022/12/06 10:02:06;;;;;;;;;;;4.10;99.90;;;;;;5069972;28;20483;-71
2022/12/06 10:05:26;;;;;;;4.15;1.58;;;4.30;99.90;;;;;;5052649;28;20007;-71
2022/12/06 10:08:17;;;;;;;3.38;2.05;;;4.40;99.90;;;;;;4992139;28;20080;-70
2022/12/06 10:10:56;;;;;;;2.65;1.75;;;4.40;99.90;;;;;;5066282;28;20066;-70
2022/12/06 10:13:49;;;;;;;3.75;1.67;;;4.30;99.90;;;;;;5069695;28;20036;-71
2022/12/06 10:16:44;;;;;;;3.42;1.42;;;4.60;99.90;;;;;;5069050;28;20120;-70
2022/12/06 10:19:38;;;;;;;2.42;1.10;;;4.40;99.90;;;;;;5068539;28;20051;-71
2022/12/06 10:22:27;;;;;;;1.80;1.20;;;4.80;99.90;;;;;;5052568;28;20053;-71
2022/12/06 10:25:10;;;;;;;2.22;1.40;;;5.00;99.90;;;;;;5069035;28;20052;-71
2022/12/06 10:27:48;;;;;;;1.80;1.25;;;5.30;99.90;;;;;;5052439;28;20476;-71
2022/12/06 10:30:16;;;;;;;1.40;1.10;;;5.30;99.90;;;;;;5052292;28;20123;-71
2022/12/06 10:33:05;;;;;;;1.50;1.00;;;5.50;99.90;;;;;;5069103;28;20123;-70
2022/12/06 10:35:58;;;;;;;2.70;1.58;;;5.70;99.90;;;;;;5066836;28;20076;-70
2022/12/06 10:38:32;;;;;;;2.58;1.40;;;5.80;99.90;;;;;;5064517;28;20052;-69
2022/12/06 10:41:12;;;;;;;1.92;1.20;;;5.80;99.90;;;;;;5067537;28;20074;-70
2022/12/06 10:43:54;;;;;;;1.90;1.10;;;5.90;99.90;;;;;;5069211;28;20057;-70
2022/12/06 10:49:25;;;;;;;2.40;1.20;;;6.00;99.90;;;;;;5068868;28;20127;-70
2022/12/06 10:52:04;;;;;;;2.22;1.20;;;6.00;99.90;;;;;;5068609;28;20088;-70
2022/12/06 10:54:42;;;;;;;2.20;0.93;;;6.10;99.90;;;;;;5069020;28;20095;-70
2022/12/06 10:57:18;;;;;;;1.38;1.00;;;6.20;99.90;;;;;;5068842;28;20115;-70
2022/12/06 10:59:55;;;;;;;1.40;1.10;;;6.20;99.90;;;;;;5052184;28;20515;-71
2022/12/06 11:02:30;;;;;;;2.20;1.05;;;6.10;99.90;;;;;;5053571;28;20295;-71
2022/12/06 11:05:00;;;;;;;1.55;1.10;;;6.10;99.90;;;;;;5053433;28;20037;-72
2022/12/06 11:07:34;;;;;;;1.40;0.80;;;6.10;99.90;;;;;;5051712;28;20090;-72
2022/12/06 11:10:01;;;;;;;2.72;1.33;;;6.10;99.90;;;;;;5069286;28;20361;-72
2022/12/06 11:12:30;;;;;;;1.85;1.10;;;6.10;99.90;;;;;;5032525;28;20102;-73
2022/12/06 11:15:21;;;;;;;2.53;1.08;;;6.10;99.90;;;;;;5049752;28;20516;-74
2022/12/06 11:17:56;;;;;;;1.60;1.27;;;6.30;99.90;;;;;;5049203;28;20350;-74
2022/12/06 11:20:40;;;;;;;2.08;1.30;;;6.60;99.90;;;;;;5049320;28;20104;-74
2022/12/06 11:23:11;;;;;;;2.33;1.45;;;7.10;99.90;;;;;;5049246;28;20496;-74
2022/12/06 11:26:05;;;;;;;2.47;1.20;;;7.20;99.90;;;;;;5067113;28;20045;-74
2022/12/06 11:28:42;;;;;;;1.50;1.20;;;7.00;99.90;;;;;;5048978;28;20131;-72
2022/12/06 11:31:17;;;;;;;;;;;6.90;99.90;;;;;;5052570;28;20040;-71
2022/12/06 11:33:43;;;;;;;2.05;1.10;;;6.90;99.90;;;;;;5052942;28;20268;-71
2022/12/06 11:36:08;;;;;;;3.13;1.30;;;6.80;99.90;;;;;;5052804;28;20060;-71
2022/12/06 11:38:38;;;;;;;2.25;1.27;;;6.70;99.90;;;;;;5052678;28;20041;-72
2022/12/06 11:41:09;;;;;;;2.20;1.40;;;6.60;99.90;;;;;;5055133;28;20041;-71
2022/12/06 11:43:35;;;;;;;2.33;1.23;;;6.60;99.90;;;;;;5063115;28;20043;-70
2022/12/06 11:46:04;;;;;;;2.30;1.40;;;6.60;99.90;;;;;;5056986;28;20068;-70
2022/12/06 11:48:33;;;;;;;1.85;1.05;;;6.50;99.90;;;;;;5063742;28;20373;-71
2022/12/06 11:50:59;;;;;;;1.73;1.13;;;6.50;99.90;;;;;;5052568;28;20139;-71
2022/12/06 11:53:46;;;;;;;1.40;0.90;;;6.40;99.90;;;;;;5054502;28;20088;-71
2022/12/06 11:56:22;;;;;;;;;;;6.40;99.90;;;;;;5064471;28;20135;-71
2022/12/06 11:59:20;;;;;;;2.35;1.40;;;6.50;99.90;;;;;;5053073;28;20108;-70
2022/12/06 12:01:49;;;;;;;3.45;1.50;;;6.80;99.90;;;;;;5052074;28;20519;-71
2022/12/06 12:04:34;;;;;;;2.17;1.20;;;7.00;99.90;;;;;;5052360;28;20485;-70
2022/12/06 12:07:04;;;;;;;1.90;1.30;;;7.40;99.90;;;;;;5035164;28;20041;-71
2022/12/06 12:09:35;;;;;;;1.27;0.85;;;7.50;99.90;;;;;;5059807;28;20094;-70
2022/12/06 12:12:06;;;;;;;1.67;0.90;;;7.80;99.90;;;;;;5071913;28;20048;-70
2022/12/06 12:14:37;;;;;;;1.80;0.93;;;8.00;99.90;;;;;;5053220;28;20127;-71
2022/12/06 12:17:12;;;;;;;1.35;1.02;;;8.00;99.90;;;;;;5064569;28;20053;-71
2022/12/06 12:19:48;;;;;;;1.70;1.10;;;7.90;99.90;;;;;;5071245;28;20425;-71
2022/12/06 12:22:35;;;;;;;3.55;1.27;;;7.70;99.90;;;;;;5054941;28;20360;-71
2022/12/06 12:25:23;;;;;;;2.50;1.20;;;7.60;99.90;;;;;;5071282;28;20033;-71
2022/12/06 12:27:51;;;;;;;1.60;1.20;;;7.40;99.90;;;;;;5054027;28;20056;-70
2022/12/06 12:30:31;;;;;;;2.08;1.00;;;7.20;99.90;;;;;;5071067;28;20507;-70
2022/12/06 12:33:05;;;;;;;2.88;1.30;;;7.20;99.90;;;;;;5071161;28;20040;-71
2022/12/06 12:35:37;;;;;;;1.90;1.38;;;7.10;99.90;;;;;;5071185;28;20048;-71
2022/12/06 12:38:13;;;;;;;2.25;1.13;;;7.00;99.90;;;;;;5054229;28;20059;-71
2022/12/06 12:40:40;;;;;;;1.50;1.05;;;6.90;99.90;;;;;;5064939;28;20072;-71
2022/12/06 12:43:15;;;;;;;2.33;1.30;;;6.90;99.90;;;;;;5055579;28;20044;-71
2022/12/06 12:46:09;;;;;;;3.67;1.50;;;6.90;99.90;;;;;;5068867;28;20072;-72
2022/12/06 12:48:37;;;;;;;2.55;1.40;;;7.00;99.90;;;;;;5039032;28;20056;-72
2022/12/06 12:51:06;;;;;;;2.20;1.27;;;7.00;99.90;;;;;;5059312;28;20412;-71
2022/12/06 12:53:40;;;;;;;3.90;1.50;;;7.00;99.90;;;;;;5066041;28;20075;-71
2022/12/06 12:56:15;;;;;;;2.70;1.60;;;7.10;99.90;;;;;;5057835;28;20440;-71
2022/12/06 12:58:42;;;;;;;2.60;1.25;;;7.10;99.90;;;;;;5064961;28;20495;-71
2022/12/06 13:01:23;;;;;;;3.08;1.25;;;7.20;99.90;;;;;;5069918;28;20048;-72
2022/12/06 13:04:16;;;;;;;1.35;1.15;;;7.20;99.90;;;;;;5054470;28;20047;-72
2022/12/06 13:07:00;;;;;;;1.58;0.88;;;7.20;99.90;;;;;;5060109;28;20045;-72
2022/12/06 13:09:49;;;;;;;2.10;1.00;;;7.30;99.90;;;;;;5050726;28;20041;-71
2022/12/06 13:12:27;;;;;;;2.78;1.23;;;7.20;99.90;;;;;;5067975;28;20060;-71
2022/12/06 13:15:26;;;;;;;2.08;1.00;;;7.20;99.90;;;;;;5033749;28;20040;-71
2022/12/06 13:17:58;;;;;;;1.70;1.10;;;7.20;99.90;;;;;;5032880;28;20055;-71
2022/12/06 13:20:28;;;;;;;2.85;1.10;;;7.10;99.90;;;;;;5050436;28;20044;-71
2022/12/06 13:22:59;;;;;;;2.42;1.30;;;7.20;99.90;;;;;;5051397;28;20134;-71
2022/12/06 13:25:25;;;;;;;4.43;1.38;;;7.10;99.90;;;;;;5066867;28;20582;-71
2022/12/06 13:27:55;;;;;;;1.77;1.20;;;7.10;99.90;;;;;;5033478;28;20075;-72
2022/12/06 13:30:27;;;;;;;2.67;1.27;;;7.10;99.90;;;;;;5051922;28;20049;-71
2022/12/06 13:33:07;;;;;;;2.90;1.15;;;7.10;99.90;;;;;;5066561;28;20083;-72
2022/12/06 13:36:01;;;;;;;2.20;1.00;;;7.10;99.90;;;;;;5051256;28;20036;-72
2022/12/06 13:38:35;;;;;;;2.40;1.10;;;7.10;99.90;;;;;;5047737;28;20057;-72
2022/12/06 13:41:06;;;;;;;3.22;1.27;;;7.10;99.90;;;;;;5076251;28;20045;-72
2022/12/06 13:43:31;;;;;;;3.47;1.20;;;7.10;99.90;;;;;;5083489;28;20033;-72
2022/12/06 13:46:09;;;;;;;2.07;1.47;;;7.10;99.90;;;;;;5083616;28;20048;-71
2022/12/06 13:48:57;;;;;;;3.08;1.52;;;7.10;99.90;;;;;;5066567;28;20291;-71
2022/12/06 13:51:33;;;;;;;1.75;1.20;;;7.10;99.90;;;;;;5082652;28;20404;-71